Time;durP1;ratioP1;P1;durP2;ratioP2;P2;SDS_P1;SDS_P2;PMS_P1;PMS_P2;Temp;Humidity;BMP_temperature;BMP_pressure;BME280_temperature;BME280_humidity;BME280_pressure;Samples;Min_cycle;Max_cycle;Signal;HPM_P1;HPM_P2
2023/06/16 00:00:34;;;;;;;6.15;3.10;;;;;;;;;;4943098;29;20046;-86
2023/06/16 00:03:01;;;;;;;8.15;3.08;;;;;;;;;;4937586;29;20126;-83
2023/06/16 00:05:28;;;;;;;5.85;3.53;;;;;;;;;;4961495;29;20039;-83
2023/06/16 00:08:00;;;;;;;8.48;3.60;;;;;;;;;;4938477;29;20036;-84
2023/06/16 00:10:26;;;;;;;6.13;3.65;;;;;;;;;;4924750;29;20020;-81
2023/06/16 00:12:52;;;;;;;6.40;3.40;;;;;;;;;;4936545;29;20087;-85
2023/06/16 00:15:17;;;;;;;7.18;3.58;;;;;;;;;;4949045;28;20042;-87
2023/06/16 00:17:46;;;;;;;9.00;3.60;;;;;;;;;;4936661;29;20036;-87
2023/06/16 00:20:19;;;;;;;5.95;3.28;;;;;;;;;;4919702;29;20031;-86
2023/06/16 00:22:47;;;;;;;5.25;3.22;;;;;;;;;;4901032;29;20488;-84
2023/06/16 00:25:22;;;;;;;6.30;3.23;;;;;;;;;;4948089;29;20039;-87
2023/06/16 00:27:47;;;;;;;5.85;2.95;;;;;;;;;;4952958;29;20304;-87
2023/06/16 00:30:13;;;;;;;5.63;3.53;;;;;;;;;;4940434;29;20040;-84
2023/06/16 00:32:39;;;;;;;6.10;3.03;;;;;;;;;;4916496;29;20030;-85
2023/06/16 00:35:04;;;;;;;5.90;3.40;;;;;;;;;;4920244;29;20027;-84
2023/06/16 00:37:30;;;;;;;6.35;3.53;;;;;;;;;;4922567;29;20497;-88
2023/06/16 00:39:55;;;;;;;5.97;3.00;;;;;;;;;;4888140;29;20083;-88
2023/06/16 00:42:21;;;;;;;6.97;3.20;;;;;;;;;;4938675;29;20039;-87
2023/06/16 00:44:47;;;;;;;5.93;3.50;;;;;;;;;;4914546;29;20115;-86
2023/06/16 00:47:12;;;;;;;7.35;3.65;;;;;;;;;;4962763;29;20050;-84
2023/06/16 00:49:38;;;;;;;8.73;3.00;;;;;;;;;;4930059;29;20114;-85
2023/06/16 00:52:06;;;;;;;7.97;3.58;;;;;;;;;;4939604;29;20035;-84
2023/06/16 00:54:32;;;;;;;6.47;3.63;;;;;;;;;;4940573;29;20577;-86
2023/06/16 00:56:58;;;;;;;8.48;3.72;;;;;;;;;;4907518;29;20306;-89
2023/06/16 00:59:27;;;;;;;5.38;3.30;;;;;;;;;;4923343;29;20036;-90
2023/06/16 01:01:54;;;;;;;8.32;4.10;;;;;;;;;;4905140;29;20074;-89
2023/06/16 01:04:21;;;;;;;6.57;3.30;;;;;;;;;;4922103;29;20035;-89
2023/06/16 01:07:05;;;;;;;5.53;3.47;;;;;;;;;;4908713;29;20066;-89
2023/06/16 01:09:42;;;;;;;6.38;3.45;;;;;;;;;;4908749;29;20409;-88
2023/06/16 01:12:11;;;;;;;7.95;3.53;;;;;;;;;;4908638;29;20038;-88
2023/06/16 01:14:42;;;;;;;6.53;3.58;;;;;;;;;;4902446;29;20040;-87
2023/06/16 01:17:09;;;;;;;5.85;3.00;;;;;;;;;;4927294;29;20035;-87
2023/06/16 01:19:57;;;;;;;7.68;3.25;;;;;;;;;;4913681;29;20055;-86
2023/06/16 01:22:26;;;;;;;7.43;3.38;;;;;;;;;;4956420;29;21011;-89
2023/06/16 01:24:54;;;;;;;6.47;3.20;;;;;;;;;;4929708;29;20038;-85
2023/06/16 01:27:21;;;;;;;11.70;3.33;;;;;;;;;;4916461;29;20124;-88
2023/06/16 01:29:48;;;;;;;5.53;2.80;;;;;;;;;;4935007;29;20050;-90
2023/06/16 01:32:14;;;;;;;8.07;3.15;;;;;;;;;;4924325;29;20028;-90
2023/06/16 01:34:40;;;;;;;8.25;4.07;;;;;;;;;;4915985;29;20034;-88
2023/06/16 01:37:06;;;;;;;5.57;3.50;;;;;;;;;;4916655;29;20126;-90
2023/06/16 01:39:32;;;;;;;8.18;3.92;;;;;;;;;;4910733;29;20035;-91
2023/06/16 01:42:00;;;;;;;5.60;3.50;;;;;;;;;;4922273;28;20488;-90
2023/06/16 01:44:27;;;;;;;5.05;3.00;;;;;;;;;;4921740;29;20038;-90
2023/06/16 01:46:53;;;;;;;7.30;4.03;;;;;;;;;;4915404;29;20039;-91
2023/06/16 01:49:19;;;;;;;8.63;3.38;;;;;;;;;;4918956;29;20117;-89
2023/06/16 01:51:44;;;;;;;8.10;3.80;;;;;;;;;;4932144;29;20047;-90
2023/06/16 01:54:10;;;;;;;5.72;3.40;;;;;;;;;;4917870;29;20039;-88
2023/06/16 01:56:36;;;;;;;7.07;3.95;;;;;;;;;;4899065;29;20078;-90
2023/06/16 01:59:01;;;;;;;7.57;3.70;;;;;;;;;;4912493;29;20043;-89
2023/06/16 02:01:32;;;;;;;7.20;3.97;;;;;;;;;;4898616;29;20031;-91
2023/06/16 02:03:57;;;;;;;7.10;3.35;;;;;;;;;;4916067;29;20040;-91
2023/06/16 02:06:25;;;;;;;7.88;3.60;;;;;;;;;;4918364;29;20511;-92
2023/06/16 02:08:53;;;;;;;11.05;4.28;;;;;;;;;;4909170;29;20045;-91
2023/06/16 02:11:19;;;;;;;7.22;3.85;;;;;;;;;;4911707;29;20038;-91
2023/06/16 02:13:45;;;;;;;9.80;3.95;;;;;;;;;;4916150;29;20030;-89
2023/06/16 02:16:11;;;;;;;8.98;3.72;;;;;;;;;;4887943;29;20028;-88
2023/06/16 02:18:37;;;;;;;9.50;3.63;;;;;;;;;;4949874;29;20074;-90
2023/06/16 02:21:02;;;;;;;11.85;4.03;;;;;;;;;;4928340;29;20027;-89
2023/06/16 02:23:28;;;;;;;11.20;3.83;;;;;;;;;;4928706;29;20035;-88
2023/06/16 02:25:53;;;;;;;8.27;3.80;;;;;;;;;;4935240;29;20064;-90
2023/06/16 02:28:19;;;;;;;7.10;3.72;;;;;;;;;;4890704;29;20040;-91
2023/06/16 02:30:45;;;;;;;7.55;3.83;;;;;;;;;;4932629;29;20102;-89
2023/06/16 02:33:12;;;;;;;7.15;3.53;;;;;;;;;;4928456;29;20027;-90
2023/06/16 02:35:38;;;;;;;6.82;3.20;;;;;;;;;;4928351;29;20508;-88
2023/06/16 02:38:04;;;;;;;9.13;4.00;;;;;;;;;;4939556;29;20039;-89
2023/06/16 02:40:30;;;;;;;7.70;3.85;;;;;;;;;;4927466;29;20023;-90
2023/06/16 02:42:55;;;;;;;8.88;3.70;;;;;;;;;;4900901;29;20406;-90
2023/06/16 02:45:21;;;;;;;7.43;4.05;;;;;;;;;;4901273;28;20059;-88
2023/06/16 02:47:47;;;;;;;5.63;3.45;;;;;;;;;;4941846;29;20036;-89
2023/06/16 02:50:14;;;;;;;7.03;3.38;;;;;;;;;;4907301;29;20445;-89
2023/06/16 02:52:43;;;;;;;8.52;3.88;;;;;;;;;;4898066;29;20036;-88
2023/06/16 02:55:12;;;;;;;6.13;3.65;;;;;;;;;;4900728;28;20035;-90
2023/06/16 02:57:43;;;;;;;6.28;3.78;;;;;;;;;;4889640;29;20036;-89
2023/06/16 03:00:10;;;;;;;7.20;3.72;;;;;;;;;;4917571;29;20087;-88
2023/06/16 03:02:42;;;;;;;10.38;3.85;;;;;;;;;;4894417;29;20036;-89
2023/06/16 03:05:07;;;;;;;7.50;3.80;;;;;;;;;;4934331;28;20081;-87
2023/06/16 03:07:34;;;;;;;8.07;4.35;;;;;;;;;;4922330;29;20039;-87
2023/06/16 03:10:08;;;;;;;6.70;3.90;;;;;;;;;;4950078;29;20147;-89
2023/06/16 03:12:49;;;;;;;7.45;3.78;;;;;;;;;;4917605;29;20082;-89
2023/06/16 03:15:15;;;;;;;9.02;4.35;;;;;;;;;;4912655;28;20481;-89
2023/06/16 03:17:42;;;;;;;7.47;4.20;;;;;;;;;;4899370;29;20118;-89
2023/06/16 03:20:09;;;;;;;7.50;3.80;;;;;;;;;;4956324;28;20027;-90
2023/06/16 03:22:42;;;;;;;10.00;4.47;;;;;;;;;;4928790;28;20063;-90
2023/06/16 03:25:08;;;;;;;12.77;3.75;;;;;;;;;;4943896;29;20020;-89
2023/06/16 03:27:41;;;;;;;7.32;4.22;;;;;;;;;;4932167;28;20042;-87
2023/06/16 03:30:08;;;;;;;6.13;3.85;;;;;;;;;;4945764;29;20083;-91
2023/06/16 03:32:49;;;;;;;9.77;3.90;;;;;;;;;;4952340;29;20039;-91
2023/06/16 03:35:15;;;;;;;7.30;3.58;;;;;;;;;;4913570;29;20032;-89
2023/06/16 03:37:40;;;;;;;8.48;3.60;;;;;;;;;;4915382;29;20436;-90
2023/06/16 03:40:07;;;;;;;8.68;3.88;;;;;;;;;;4890109;29;20051;-89
2023/06/16 03:42:35;;;;;;;10.18;4.10;;;;;;;;;;4916908;29;20429;-90
2023/06/16 03:45:03;;;;;;;6.72;3.50;;;;;;;;;;4918885;29;20036;-90
2023/06/16 03:47:29;;;;;;;7.13;3.80;;;;;;;;;;4919468;29;20402;-89
2023/06/16 03:49:55;;;;;;;6.85;3.97;;;;;;;;;;4919090;29;20028;-89
2023/06/16 03:52:21;;;;;;;9.30;4.28;;;;;;;;;;4934466;29;20028;-89
2023/06/16 03:54:48;;;;;;;6.97;3.17;;;;;;;;;;4894150;29;20035;-91
2023/06/16 03:57:14;;;;;;;8.55;4.07;;;;;;;;;;4894997;29;20059;-90
2023/06/16 03:59:40;;;;;;;6.85;3.65;;;;;;;;;;4919023;29;20489;-90
2023/06/16 04:02:07;;;;;;;6.97;3.60;;;;;;;;;;4907459;29;20186;-88
2023/06/16 04:04:34;;;;;;;7.72;4.28;;;;;;;;;;4927964;29;20031;-88
2023/06/16 04:07:00;;;;;;;11.48;4.15;;;;;;;;;;4904155;29;20039;-86
2023/06/16 04:09:26;;;;;;;11.85;3.90;;;;;;;;;;4932926;29;20124;-88
2023/06/16 04:11:52;;;;;;;6.18;3.42;;;;;;;;;;4932026;29;20047;-88
2023/06/16 04:14:18;;;;;;;8.10;3.92;;;;;;;;;;4937436;29;20028;-87
2023/06/16 04:16:44;;;;;;;9.50;4.28;;;;;;;;;;4925358;29;20038;-89
2023/06/16 04:19:13;;;;;;;8.25;4.32;;;;;;;;;;4961045;29;20066;-86
2023/06/16 04:21:41;;;;;;;7.50;3.80;;;;;;;;;;4897626;29;20040;-89
2023/06/16 04:24:12;;;;;;;6.13;3.75;;;;;;;;;;4918900;29;20042;-90
2023/06/16 04:26:41;;;;;;;10.05;4.00;;;;;;;;;;4912654;29;20033;-92
2023/06/16 04:29:08;;;;;;;8.82;4.00;;;;;;;;;;4932202;29;20039;-91
2023/06/16 04:31:39;;;;;;;10.77;4.28;;;;;;;;;;4933950;29;20110;-91
2023/06/16 04:34:05;;;;;;;10.30;4.10;;;;;;;;;;4924728;29;20565;-90
2023/06/16 04:36:34;;;;;;;9.82;4.05;;;;;;;;;;4901969;29;20088;-89
2023/06/16 04:39:08;;;;;;;8.60;4.72;;;;;;;;;;4904219;29;20035;-90
2023/06/16 04:41:35;;;;;;;8.00;4.57;;;;;;;;;;4940132;29;20031;-89
2023/06/16 04:44:03;;;;;;;9.32;4.43;;;;;;;;;;4924995;29;20032;-88
2023/06/16 04:46:29;;;;;;;9.07;4.82;;;;;;;;;;4924148;23;20047;-80
2023/06/16 04:48:55;;;;;;;10.00;4.95;;;;;;;;;;4913232;29;20569;-78
2023/06/16 04:51:20;;;;;;;8.05;4.68;;;;;;;;;;4910898;29;20036;-80
2023/06/16 04:53:47;;;;;;;8.05;4.80;;;;;;;;;;4920354;29;20050;-80
2023/06/16 04:56:13;;;;;;;8.18;4.75;;;;;;;;;;4887285;29;20055;-80
2023/06/16 04:58:39;;;;;;;9.10;5.15;;;;;;;;;;4897412;29;20032;-80
2023/06/16 05:01:05;;;;;;;12.05;7.47;;;;;;;;;;4874705;29;20047;-80
2023/06/16 05:03:31;;;;;;;22.20;7.28;;;;;;;;;;4885002;29;20038;-80
2023/06/16 05:05:56;;;;;;;7.82;4.20;;;;;;;;;;4917175;29;20043;-81
2023/06/16 05:08:22;;;;;;;11.82;4.75;;;;;;;;;;4900545;29;20488;-80
2023/06/16 05:10:48;;;;;;;11.40;4.45;;;;;;;;;;4900386;29;20024;-80
2023/06/16 05:13:13;;;;;;;11.95;5.57;;;;;;;;;;4901201;29;20085;-80
2023/06/16 05:15:39;;;;;;;11.60;5.07;;;;;;;;;;4900683;29;20083;-79
2023/06/16 05:18:05;;;;;;;8.82;5.40;;;;;;;;;;4917171;29;20072;-79
2023/06/16 05:20:32;;;;;;;9.43;4.97;;;;;;;;;;4900913;29;20524;-80
2023/06/16 05:22:58;;;;;;;13.77;5.07;;;;;;;;;;4885113;29;20032;-80
2023/06/16 05:25:24;;;;;;;11.70;5.30;;;;;;;;;;4900381;29;20060;-79
2023/06/16 05:27:49;;;;;;;10.40;4.75;;;;;;;;;;4900653;29;20044;-79
2023/06/16 05:30:15;;;;;;;13.23;5.35;;;;;;;;;;4884750;29;20072;-79
2023/06/16 05:32:40;;;;;;;9.85;4.65;;;;;;;;;;4917634;29;20068;-79
2023/06/16 05:35:07;;;;;;;8.45;4.85;;;;;;;;;;4900221;29;20505;-79
2023/06/16 05:37:33;;;;;;;9.55;4.75;;;;;;;;;;4890987;29;20037;-82
2023/06/16 05:40:01;;;;;;;14.13;5.63;;;;;;;;;;4878401;29;20072;-80
2023/06/16 05:42:28;;;;;;;12.27;5.10;;;;;;;;;;4870301;29;20034;-81
2023/06/16 05:44:54;;;;;;;9.57;4.85;;;;;;;;;;4885632;29;20039;-79
2023/06/16 05:47:20;;;;;;;8.65;5.05;;;;;;;;;;4900893;29;20032;-78
2023/06/16 05:49:47;;;;;;;6.80;4.38;;;;;;;;;;4900805;29;20056;-79
2023/06/16 05:52:12;;;;;;;13.18;5.13;;;;;;;;;;4885428;29;20032;-80
2023/06/16 05:54:41;;;;;;;8.75;4.70;;;;;;;;;;4901230;29;20032;-79
2023/06/16 05:57:10;;;;;;;8.18;5.05;;;;;;;;;;4902039;29;20040;-80
2023/06/16 05:59:36;;;;;;;12.40;5.38;;;;;;;;;;4884473;29;20051;-79
2023/06/16 06:02:02;;;;;;;9.75;4.78;;;;;;;;;;4899985;29;20563;-79
2023/06/16 06:04:31;;;;;;;11.77;5.60;;;;;;;;;;4899105;29;20109;-79
2023/06/16 06:07:00;;;;;;;12.57;4.70;;;;;;;;;;4904426;29;20043;-79
2023/06/16 06:09:27;;;;;;;12.85;4.70;;;;;;;;;;4899153;29;20036;-80
2023/06/16 06:11:53;;;;;;;9.95;4.65;;;;;;;;;;4898897;29;20119;-78
2023/06/16 06:14:19;;;;;;;7.50;4.15;;;;;;;;;;4867940;29;20545;-79
2023/06/16 06:16:45;;;;;;;10.57;4.75;;;;;;;;;;4915884;29;20127;-80
2023/06/16 06:19:10;;;;;;;9.90;5.00;;;;;;;;;;4899123;29;20063;-79
2023/06/16 06:21:38;;;;;;;7.22;4.18;;;;;;;;;;4883620;29;20039;-80
2023/06/16 06:24:05;;;;;;;9.43;6.40;;;;;;;;;;4899379;29;20107;-80
2023/06/16 06:26:31;;;;;;;8.13;4.80;;;;;;;;;;4868305;29;20027;-80
2023/06/16 06:28:59;;;;;;;11.65;4.78;;;;;;;;;;4883524;29;20032;-79
2023/06/16 06:31:25;;;;;;;8.40;4.20;;;;;;;;;;4895720;29;20043;-80
2023/06/16 06:33:50;;;;;;;9.30;4.93;;;;;;;;;;4894124;29;20024;-80
2023/06/16 06:36:27;;;;;;;9.13;4.55;;;;;;;;;;4898932;29;20094;-80
2023/06/16 06:38:54;;;;;;;8.27;3.83;;;;;;;;;;4890463;29;20122;-79
2023/06/16 06:41:23;;;;;;;7.35;4.05;;;;;;;;;;4898653;29;20063;-80
2023/06/16 06:43:52;;;;;;;8.07;4.28;;;;;;;;;;4892511;29;20067;-81
2023/06/16 06:46:38;;;;;;;9.82;4.63;;;;;;;;;;4913736;29;20040;-80
2023/06/16 06:49:03;;;;;;;9.07;4.05;;;;;;;;;;4866209;29;20044;-80
2023/06/16 06:51:31;;;;;;;10.05;4.15;;;;;;;;;;4900477;29;20028;-80
2023/06/16 06:53:56;;;;;;;11.02;4.72;;;;;;;;;;4899286;29;20035;-80
2023/06/16 06:56:22;;;;;;;8.95;4.68;;;;;;;;;;4898424;29;20020;-80
2023/06/16 06:58:48;;;;;;;9.75;4.40;;;;;;;;;;4883641;29;20066;-80
2023/06/16 07:01:14;;;;;;;11.45;4.43;;;;;;;;;;4898753;29;20066;-80
2023/06/16 07:03:39;;;;;;;7.07;4.18;;;;;;;;;;4898846;29;20032;-80
2023/06/16 07:06:05;;;;;;;12.27;4.20;;;;;;;;;;4898634;29;20039;-80
2023/06/16 07:08:30;;;;;;;8.80;4.40;;;;;;;;;;4853869;29;20024;-80
2023/06/16 07:10:56;;;;;;;9.00;4.22;;;;;;;;;;4898037;29;20047;-80
2023/06/16 07:13:21;;;;;;;8.32;4.32;;;;;;;;;;4882885;29;20032;-79
2023/06/16 07:15:47;;;;;;;12.38;4.32;;;;;;;;;;4898614;29;20043;-79
2023/06/16 07:18:13;;;;;;;8.38;4.70;;;;;;;;;;4915501;29;20069;-79
2023/06/16 07:20:38;;;;;;;8.55;4.07;;;;;;;;;;4915613;29;20067;-80
2023/06/16 07:23:04;;;;;;;8.70;3.97;;;;;;;;;;4898889;29;20367;-80
2023/06/16 07:25:32;;;;;;;7.82;4.10;;;;;;;;;;4915515;29;20079;-78
2023/06/16 07:27:58;;;;;;;;;;;;;;;;;;4868820;29;20032;-79
2023/06/16 07:30:23;;;;;;;7.40;4.10;;;;;;;;;;4899061;29;19912;-79
2023/06/16 07:32:49;;;;;;;11.43;4.35;;;;;;;;;;4898329;29;20091;-80
2023/06/16 07:35:15;;;;;;;9.32;4.47;;;;;;;;;;4888884;29;20036;-79
2023/06/16 07:37:41;;;;;;;9.43;4.47;;;;;;;;;;4910185;29;20040;-80
2023/06/16 07:40:08;;;;;;;8.05;4.07;;;;;;;;;;4895706;29;20059;-78
2023/06/16 07:42:34;;;;;;;6.85;3.22;;;;;;;;;;4918863;29;20083;-79
2023/06/16 07:45:02;;;;;;;7.10;3.60;;;;;;;;;;4918740;29;20036;-79
2023/06/16 07:47:27;;;;;;;10.30;4.13;;;;;;;;;;4918501;29;20043;-80
2023/06/16 07:49:53;;;;;;;6.57;3.83;;;;;;;;;;4901853;29;20028;-80
2023/06/16 07:52:18;;;;;;;5.68;3.47;;;;;;;;;;4918501;29;20367;-79
2023/06/16 07:54:45;;;;;;;14.88;3.90;;;;;;;;;;4918495;29;20508;-78
2023/06/16 07:57:11;;;;;;;8.45;3.88;;;;;;;;;;4918647;29;20043;-81
2023/06/16 07:59:36;;;;;;;12.25;4.38;;;;;;;;;;4925845;29;20040;-79
2023/06/16 08:02:03;;;;;;;10.50;4.00;;;;;;;;;;4906972;29;20119;-80
2023/06/16 08:04:29;;;;;;;8.18;3.92;;;;;;;;;;4879589;29;20107;-80
2023/06/16 08:06:56;;;;;;;6.35;3.65;;;;;;;;;;4911551;29;20127;-80
2023/06/16 08:09:23;;;;;;;7.43;3.33;;;;;;;;;;4921784;29;20116;-78
2023/06/16 08:11:49;;;;;;;16.15;4.00;;;;;;;;;;4928150;29;20080;-80
2023/06/16 08:14:15;;;;;;;8.45;3.45;;;;;;;;;;4912170;29;20039;-80
2023/06/16 08:16:40;;;;;;;12.88;3.80;;;;;;;;;;4908755;29;20036;-79
2023/06/16 08:19:08;;;;;;;5.90;3.60;;;;;;;;;;4903129;29;20036;-80
2023/06/16 08:21:34;;;;;;;6.85;3.47;;;;;;;;;;4917849;29;20510;-77
2023/06/16 08:24:00;;;;;;;8.85;3.60;;;;;;;;;;4901458;29;20111;-79
2023/06/16 08:26:25;;;;;;;13.93;4.22;;;;;;;;;;4901805;29;20039;-78
2023/06/16 08:28:51;;;;;;;10.05;3.33;;;;;;;;;;4918223;29;20035;-77
2023/06/16 08:31:16;;;;;;;7.47;3.40;;;;;;;;;;4917896;29;20466;-79
2023/06/16 08:33:42;;;;;;;6.90;3.72;;;;;;;;;;4912439;29;20044;-80
2023/06/16 08:36:07;;;;;;;9.88;3.38;;;;;;;;;;4917643;29;20115;-78
2023/06/16 08:38:33;;;;;;;10.73;3.33;;;;;;;;;;4888241;29;20031;-78
2023/06/16 08:41:02;;;;;;;8.90;3.45;;;;;;;;;;4919161;29;20516;-78
2023/06/16 08:43:28;;;;;;;8.65;3.20;;;;;;;;;;4891802;29;20037;-79
2023/06/16 08:45:54;;;;;;;10.60;3.83;;;;;;;;;;4912823;29;20490;-79
2023/06/16 08:48:20;;;;;;;5.15;2.95;;;;;;;;;;4917649;29;20032;-79
2023/06/16 08:50:46;;;;;;;5.28;2.95;;;;;;;;;;4901051;29;20409;-80
2023/06/16 08:53:12;;;;;;;8.38;3.38;;;;;;;;;;4900213;29;20039;-78
2023/06/16 08:55:40;;;;;;;6.95;3.42;;;;;;;;;;4917826;29;20032;-79
2023/06/16 08:58:07;;;;;;;10.75;3.13;;;;;;;;;;4901327;29;20036;-78
2023/06/16 09:00:33;;;;;;;6.85;3.55;;;;;;;;;;4900946;29;20409;-78
2023/06/16 09:02:59;;;;;;;6.50;3.50;;;;;;;;;;4900403;29;20032;-80
2023/06/16 09:05:25;;;;;;;6.90;3.38;;;;;;;;;;4900414;29;20040;-79
2023/06/16 09:07:51;;;;;;;6.25;3.17;;;;;;;;;;4917473;29;20036;-80
2023/06/16 09:10:17;;;;;;;5.10;3.38;;;;;;;;;;4900599;29;20031;-80
2023/06/16 09:12:43;;;;;;;7.05;3.67;;;;;;;;;;4914029;29;20028;-78
2023/06/16 09:15:12;;;;;;;6.30;3.60;;;;;;;;;;4900557;29;20099;-80
2023/06/16 09:17:39;;;;;;;12.07;3.88;;;;;;;;;;4900522;29;20071;-78
2023/06/16 09:20:07;;;;;;;10.27;4.10;;;;;;;;;;4917451;29;20112;-80
2023/06/16 09:22:33;;;;;;;8.52;4.00;;;;;;;;;;4877274;29;20051;-78
2023/06/16 09:24:59;;;;;;;8.05;3.78;;;;;;;;;;4917583;29;20028;-78
2023/06/16 09:27:43;;;;;;;5.45;3.20;;;;;;;;;;4900694;29;20043;-79
2023/06/16 09:30:10;;;;;;;9.63;3.67;;;;;;;;;;4901358;29;20077;-79
2023/06/16 09:32:37;;;;;;;7.80;3.78;;;;;;;;;;4900732;29;20119;-79
2023/06/16 09:35:16;;;;;;;6.38;3.72;;;;;;;;;;4900957;29;20063;-78
2023/06/16 09:37:41;;;;;;;;;;;;;;;;;;4870487;29;20060;-79
2023/06/16 09:40:09;;;;;;;7.00;3.95;;;;;;;;;;4905146;29;19919;-79
2023/06/16 09:42:36;;;;;;;6.28;3.65;;;;;;;;;;4893940;29;20028;-78
2023/06/16 09:45:08;;;;;;;6.60;3.33;;;;;;;;;;4899841;29;20064;-79
2023/06/16 09:47:36;;;;;;;7.78;3.90;;;;;;;;;;4899645;29;20168;-78
2023/06/16 09:50:01;;;;;;;6.07;3.92;;;;;;;;;;4883339;29;20040;-79
2023/06/16 09:52:27;;;;;;;5.55;3.45;;;;;;;;;;4885216;29;20426;-80
2023/06/16 09:54:54;;;;;;;6.07;3.70;;;;;;;;;;4916431;29;20043;-79
2023/06/16 09:57:20;;;;;;;5.55;3.30;;;;;;;;;;4899552;29;20032;-78
2023/06/16 09:59:45;;;;;;;4.88;2.85;;;;;;;;;;4916379;29;20039;-79
2023/06/16 10:02:12;;;;;;;5.47;3.42;;;;;;;;;;4916303;29;20060;-80
2023/06/16 10:04:38;;;;;;;6.05;3.38;;;;;;;;;;4899337;29;20142;-78
2023/06/16 10:07:06;;;;;;;5.45;3.50;;;;;;;;;;4915972;29;20028;-80
2023/06/16 10:09:39;;;;;;;6.17;3.00;;;;;;;;;;4899321;29;20024;-79
2023/06/16 10:12:07;;;;;;;6.00;2.90;;;;;;;;;;4895398;29;20031;-79
2023/06/16 10:14:33;;;;;;;6.00;2.95;;;;;;;;;;4881180;29;20028;-79
2023/06/16 10:17:00;;;;;;;5.53;3.25;;;;;;;;;;4899388;29;20036;-79
2023/06/16 10:19:26;;;;;;;5.43;2.97;;;;;;;;;;4916129;29;20039;-79
2023/06/16 10:21:52;;;;;;;5.85;2.50;;;;;;;;;;4916257;29;20028;-80
2023/06/16 10:24:19;;;;;;;5.85;3.15;;;;;;;;;;4898999;29;20118;-79
2023/06/16 10:26:44;;;;;;;5.82;2.92;;;;;;;;;;4896526;29;20056;-79
2023/06/16 10:29:16;;;;;;;7.47;3.38;;;;;;;;;;4906676;29;20525;-79
2023/06/16 10:31:43;;;;;;;8.70;3.30;;;;;;;;;;4868382;29;20068;-80
2023/06/16 10:34:16;;;;;;;6.47;3.92;;;;;;;;;;4916025;29;20028;-80
2023/06/16 10:36:41;;;;;;;4.97;3.08;;;;;;;;;;4915893;29;20036;-78
2023/06/16 10:39:08;;;;;;;6.82;3.70;;;;;;;;;;4916100;29;20024;-79
2023/06/16 10:41:33;;;;;;;8.65;3.65;;;;;;;;;;4916066;29;20028;-78
2023/06/16 10:44:18;;;;;;;5.38;3.33;;;;;;;;;;4893972;29;20029;-78
2023/06/16 10:46:48;;;;;;;6.78;3.22;;;;;;;;;;4894527;28;20040;-81
2023/06/16 10:49:20;;;;;;;7.95;3.50;;;;;;;;;;4868633;29;20056;-78
2023/06/16 10:51:49;;;;;;;5.32;3.47;;;;;;;;;;4879990;29;20556;-76
2023/06/16 10:54:16;;;;;;;8.07;4.00;;;;;;;;;;4880797;29;20050;-78
2023/06/16 10:57:08;;;;;;;7.22;4.00;;;;;;;;;;4864495;29;20036;-78
2023/06/16 10:59:53;;;;;;;6.38;3.40;;;;;;;;;;4833386;29;20064;-77
2023/06/16 11:02:29;;;;;;;8.93;3.58;;;;;;;;;;4864767;29;20025;-77
2023/06/16 11:05:07;;;;;;;5.95;3.55;;;;;;;;;;4847618;29;20040;-77
2023/06/16 11:07:57;;;;;;;7.03;3.50;;;;;;;;;;4846662;29;20076;-78
2023/06/16 11:10:23;;;;;;;6.03;3.78;;;;;;;;;;4835092;29;20065;-78
2023/06/16 11:12:49;;;;;;;5.70;3.80;;;;;;;;;;4877977;29;20068;-79
2023/06/16 11:15:14;;;;;;;8.45;3.80;;;;;;;;;;4877032;29;20030;-77
2023/06/16 11:17:44;;;;;;;5.68;3.75;;;;;;;;;;4874542;29;20041;-76
2023/06/16 11:20:11;;;;;;;6.80;3.70;;;;;;;;;;4878217;29;20036;-76
2023/06/16 11:22:37;;;;;;;6.40;3.60;;;;;;;;;;4846445;29;20109;-77
2023/06/16 11:25:03;;;;;;;6.35;3.90;;;;;;;;;;4861136;29;20037;-78
2023/06/16 11:27:30;;;;;;;5.88;3.75;;;;;;;;;;4821076;29;20042;-79
2023/06/16 11:29:57;;;;;;;8.07;3.50;;;;;;;;;;4840530;29;20037;-78
2023/06/16 11:32:24;;;;;;;5.97;3.92;;;;;;;;;;4845328;29;20029;-78
2023/06/16 11:34:51;;;;;;;7.38;4.00;;;;;;;;;;4861526;29;20041;-79
2023/06/16 11:37:17;;;;;;;6.95;3.83;;;;;;;;;;4861093;29;20088;-78
2023/06/16 11:39:43;;;;;;;7.22;3.83;;;;;;;;;;4831214;29;20413;-80
2023/06/16 11:42:13;;;;;;;5.93;3.85;;;;;;;;;;4860980;29;20037;-80
2023/06/16 11:44:39;;;;;;;6.03;4.30;;;;;;;;;;4846533;29;20029;-81
2023/06/16 11:47:07;;;;;;;9.55;4.10;;;;;;;;;;4862278;29;20116;-79
2023/06/16 11:49:36;;;;;;;6.65;4.28;;;;;;;;;;4876986;29;20041;-80
2023/06/16 11:52:06;;;;;;;5.75;3.45;;;;;;;;;;4876602;29;20100;-80
2023/06/16 11:54:32;;;;;;;5.90;3.50;;;;;;;;;;4876684;29;20029;-79
2023/06/16 11:56:59;;;;;;;8.30;3.78;;;;;;;;;;4876303;29;20070;-78
2023/06/16 11:59:28;;;;;;;6.30;3.83;;;;;;;;;;4877015;29;20033;-80
2023/06/16 12:01:57;;;;;;;8.00;4.15;;;;;;;;;;4876426;29;20036;-80
2023/06/16 12:04:25;;;;;;;8.05;4.00;;;;;;;;;;4876846;29;20125;-80
2023/06/16 12:06:51;;;;;;;8.85;4.05;;;;;;;;;;4877781;29;20074;-80
2023/06/16 12:09:20;;;;;;;8.35;3.78;;;;;;;;;;4876995;29;20029;-81
2023/06/16 12:11:46;;;;;;;10.13;4.45;;;;;;;;;;4876808;29;20033;-79
2023/06/16 12:14:19;;;;;;;8.85;3.83;;;;;;;;;;4876527;29;20048;-79
2023/06/16 12:16:47;;;;;;;6.72;4.00;;;;;;;;;;4857774;29;20034;-78
2023/06/16 12:19:17;;;;;;;7.20;4.00;;;;;;;;;;4857884;29;20030;-78
2023/06/16 12:21:43;;;;;;;8.05;4.38;;;;;;;;;;4870315;29;20033;-78
2023/06/16 12:24:12;;;;;;;9.52;3.90;;;;;;;;;;4874848;29;20084;-84
2023/06/16 12:26:40;;;;;;;5.35;3.72;;;;;;;;;;4869487;29;20044;-78
2023/06/16 12:29:10;;;;;;;7.03;4.13;;;;;;;;;;4863546;29;20036;-78
2023/06/16 12:31:36;;;;;;;6.57;3.92;;;;;;;;;;4880172;29;20033;-78
2023/06/16 12:34:01;;;;;;;9.25;4.13;;;;;;;;;;4864939;29;20036;-79
2023/06/16 12:36:27;;;;;;;9.20;4.28;;;;;;;;;;4879993;29;20048;-78
2023/06/16 12:38:57;;;;;;;6.22;3.78;;;;;;;;;;4880020;29;20033;-79
2023/06/16 12:41:26;;;;;;;7.88;3.63;;;;;;;;;;4881309;29;20037;-78
2023/06/16 12:43:52;;;;;;;7.32;3.92;;;;;;;;;;4849516;29;20041;-79
2023/06/16 12:46:18;;;;;;;7.25;3.80;;;;;;;;;;4850021;29;20053;-78
2023/06/16 12:48:44;;;;;;;5.97;3.30;;;;;;;;;;4895326;29;20566;-78
2023/06/16 12:51:11;;;;;;;5.72;3.30;;;;;;;;;;4864572;29;20036;-77
2023/06/16 12:53:43;;;;;;;7.50;3.17;;;;;;;;;;4896083;29;20401;-77
2023/06/16 12:56:09;;;;;;;7.65;3.75;;;;;;;;;;4865305;29;20490;-79
2023/06/16 12:58:38;;;;;;;6.75;3.78;;;;;;;;;;4849366;29;20144;-78
2023/06/16 13:01:10;;;;;;;12.80;4.57;;;;;;;;;;4880259;29;20076;-79
2023/06/16 13:03:36;;;;;;;6.40;3.88;;;;;;;;;;4850166;29;20507;-78
2023/06/16 13:06:02;;;;;;;8.80;3.95;;;;;;;;;;4824874;29;20473;-78
2023/06/16 13:08:30;;;;;;;7.15;3.53;;;;;;;;;;4880512;29;20033;-78
2023/06/16 13:10:55;;;;;;;5.00;2.92;;;;;;;;;;4880272;29;20475;-78
2023/06/16 13:13:21;;;;;;;6.15;2.95;;;;;;;;;;4894241;29;20047;-78
2023/06/16 13:15:47;;;;;;;6.47;3.22;;;;;;;;;;4878454;29;20033;-78
2023/06/16 13:18:12;;;;;;;5.53;2.85;;;;;;;;;;4878184;29;20105;-78
2023/06/16 13:20:38;;;;;;;5.88;2.70;;;;;;;;;;4862679;29;20028;-78
2023/06/16 13:23:04;;;;;;;5.75;2.88;;;;;;;;;;4878409;29;20040;-79
2023/06/16 13:25:30;;;;;;;5.55;2.78;;;;;;;;;;4871520;29;20050;-78
2023/06/16 13:27:56;;;;;;;8.98;3.70;;;;;;;;;;4874140;29;20032;-78
2023/06/16 13:30:22;;;;;;;5.70;2.97;;;;;;;;;;4855420;29;20507;-78
2023/06/16 13:32:47;;;;;;;6.70;3.55;;;;;;;;;;4878666;29;20411;-78
2023/06/16 13:35:17;;;;;;;6.80;3.22;;;;;;;;;;4878160;29;20037;-78
2023/06/16 13:37:42;;;;;;;8.07;3.08;;;;;;;;;;4878190;29;20128;-79
2023/06/16 13:40:08;;;;;;;6.35;3.13;;;;;;;;;;4877399;29;20124;-78
2023/06/16 13:42:35;;;;;;;8.27;3.55;;;;;;;;;;4877845;29;20041;-79
2023/06/16 13:45:01;;;;;;;5.32;3.03;;;;;;;;;;4893440;29;20040;-79
2023/06/16 13:47:26;;;;;;;4.25;2.38;;;;;;;;;;4861995;29;20403;-77
2023/06/16 13:49:52;;;;;;;6.13;3.08;;;;;;;;;;4878878;29;20033;-78
2023/06/16 13:52:18;;;;;;;5.63;2.53;;;;;;;;;;4877761;29;20032;-78
2023/06/16 13:54:43;;;;;;;5.53;2.42;;;;;;;;;;4878888;29;20025;-79
2023/06/16 13:57:12;;;;;;;5.03;3.00;;;;;;;;;;4878847;29;20037;-77
2023/06/16 13:59:38;;;;;;;;;;;;;;;;;;4888803;29;20053;-78
2023/06/16 14:02:04;;;;;;;5.38;2.50;;;;;;;;;;4859145;29;19911;-79
2023/06/16 14:04:30;;;;;;;6.60;3.30;;;;;;;;;;4877546;29;20089;-78
2023/06/16 14:06:56;;;;;;;4.97;2.50;;;;;;;;;;4892669;29;20029;-80
2023/06/16 14:09:22;;;;;;;7.55;2.70;;;;;;;;;;4877438;29;20033;-79
2023/06/16 14:11:48;;;;;;;4.75;3.00;;;;;;;;;;4888642;29;20029;-78
2023/06/16 14:14:13;;;;;;;4.90;2.65;;;;;;;;;;4861994;29;20044;-79
2023/06/16 14:16:39;;;;;;;4.88;2.72;;;;;;;;;;4846420;29;20356;-78
2023/06/16 14:19:05;;;;;;;4.93;2.67;;;;;;;;;;4862166;29;20092;-79
2023/06/16 14:21:34;;;;;;;5.05;2.53;;;;;;;;;;4862044;29;20415;-77
2023/06/16 14:23:59;;;;;;;;;;;;;;;;;;4878342;29;20040;-78
2023/06/16 14:26:25;;;;;;;5.15;2.88;;;;;;;;;;4861950;29;20459;-77
2023/06/16 14:28:51;;;;;;;4.78;2.50;;;;;;;;;;4846616;29;20498;-78
2023/06/16 14:31:16;;;;;;;5.45;3.22;;;;;;;;;;4846723;29;20439;-78
2023/06/16 14:33:43;;;;;;;6.15;2.90;;;;;;;;;;4859832;29;20447;-77
2023/06/16 14:36:08;;;;;;;10.88;2.85;;;;;;;;;;4871183;29;20116;-76
2023/06/16 14:38:34;;;;;;;7.68;3.25;;;;;;;;;;4878459;29;20467;-79
2023/06/16 14:41:00;;;;;;;6.03;2.67;;;;;;;;;;4878003;29;20471;-77
2023/06/16 14:43:25;;;;;;;5.00;2.80;;;;;;;;;;4894173;29;20041;-79